Time;durP1;ratioP1;P1;durP2;ratioP2;P2;SDS_P1;SDS_P2;PMS_P1;PMS_P2;Temp;Humidity;BMP_temperature;BMP_pressure;BME280_temperature;BME280_humidity;BME280_pressure;Samples;Min_cycle;Max_cycle;Signal;HPM_P1;HPM_P2
2023/05/14 00:01:08;;;;;;;;;;;;;;;25.11;35.99;101605.91;4134580;28;19944;-59
2023/05/14 00:03:10;;;;;;;;;;;;;;;25.11;35.71;101609.44;4134067;28;19922;-59
2023/05/14 00:05:12;;;;;;;;;;;;;;;25.11;35.64;101603.22;4134522;28;19925;-59
2023/05/14 00:07:14;;;;;;;;;;;;;;;25.11;35.96;101612.13;4134316;28;19921;-59
2023/05/14 00:09:15;;;;;;;;;;;;;;;25.12;36.00;101607.63;4133005;28;19946;-59
2023/05/14 00:11:17;;;;;;;;;;;;;;;25.13;35.84;101598.53;4134534;28;19928;-59
2023/05/14 00:13:18;;;;;;;;;;;;;;;25.13;36.05;101593.16;4134224;28;19932;-60
2023/05/14 00:15:20;;;;;;;;;;;;;;;25.14;35.64;101597.53;4134363;28;20013;-60
2023/05/14 00:17:21;;;;;;;;;;;;;;;25.14;35.79;101594.84;4134013;28;20346;-59
2023/05/14 00:19:23;;;;;;;;;;;;;;;25.14;35.79;101602.94;4133258;28;19922;-59
2023/05/14 00:21:25;;;;;;;;;;;;;;;25.14;35.59;101594.84;4134342;28;19922;-59
2023/05/14 00:23:26;;;;;;;;;;;;;;;25.14;35.56;101594.84;4134010;28;20447;-59
2023/05/14 00:25:28;;;;;;;;;;;;;;;25.13;35.74;101594.00;4134006;28;20359;-60
2023/05/14 00:27:29;;;;;;;;;;;;;;;25.14;35.76;101594.84;4134070;28;20442;-59
2023/05/14 00:29:31;;;;;;;;;;;;;;;25.15;35.65;101591.19;4132826;28;20315;-59
2023/05/14 00:31:32;;;;;;;;;;;;;;;25.14;35.56;101590.34;4133779;28;19922;-59
2023/05/14 00:33:34;;;;;;;;;;;;;;;25.15;35.76;101592.06;4133610;28;19950;-59
2023/05/14 00:35:36;;;;;;;;;;;;;;;25.16;35.82;101584.81;4134112;28;20376;-59
2023/05/14 00:37:37;;;;;;;;;;;;;;;25.16;35.68;101584.81;4133847;28;19934;-59
2023/05/14 00:39:39;;;;;;;;;;;;;;;25.17;35.49;101591.94;4132893;28;19922;-60
2023/05/14 00:41:40;;;;;;;;;;;;;;;25.16;35.36;101588.34;4134012;28;19922;-59
2023/05/14 00:43:42;;;;;;;;;;;;;;;25.19;35.38;101589.97;4133900;28;19929;-59
2023/05/14 00:45:44;;;;;;;;;;;;;;;25.16;35.49;101588.34;4133711;28;20335;-60
2023/05/14 00:47:46;;;;;;;;;;;;;;;25.17;35.30;101583.84;4133736;28;19922;-59
2023/05/14 00:49:47;;;;;;;;;;;;;;;25.16;35.16;101577.59;4132603;28;20048;-59
2023/05/14 00:51:49;;;;;;;;;;;;;;;25.16;35.55;101574.91;4133668;28;19921;-59
2023/05/14 00:53:52;;;;;;;;;;;;;;;25.17;35.33;101582.00;4133673;28;19997;-59
2023/05/14 00:55:53;;;;;;;;;;;;;;;25.18;35.54;101574.78;4132418;28;20337;-59
2023/05/14 00:57:56;;;;;;;;;;;;;;;25.17;35.44;101573.91;4133546;28;19921;-60
2023/05/14 00:59:58;;;;;;;;;;;;;;;25.17;35.40;101576.63;4132838;28;19929;-59
2023/05/14 01:02:00;;;;;;;;;;;;;;;25.19;35.23;101577.34;4133120;28;19968;-59
2023/05/14 01:04:01;;;;;;;;;;;;;;;25.19;35.31;101573.81;4133433;28;19929;-59
2023/05/14 01:06:06;;;;;;;;;;;;;;;25.19;35.44;101568.44;4132475;28;19932;-60
2023/05/14 01:08:14;;;;;;;;;;;;;;;25.20;35.25;101572.81;4132508;28;19928;-60
2023/05/14 01:10:31;;;;;;;;;;;;;;;25.19;35.17;101563.03;4133129;28;19928;-59
2023/05/14 01:12:39;;;;;;;;;;;;;;;25.19;35.48;101566.56;4132259;28;19922;-59
2023/05/14 01:15:00;;;;;;;;;;;;;;;25.18;35.11;101567.56;4133368;28;19922;-59
2023/05/14 01:17:03;;;;;;;;;;;;;;;25.18;35.20;101567.56;4133101;28;19964;-59
2023/05/14 01:19:09;;;;;;;;;;;;;;;25.19;35.05;101571.13;4131967;28;19921;-60
2023/05/14 01:21:29;;;;;;;;;;;;;;;25.19;34.99;101576.50;4133271;28;20413;-59
2023/05/14 01:23:30;;;;;;;;;;;;;;;25.20;35.13;101580.88;4133022;28;19933;-59
2023/05/14 01:25:32;;;;;;;;;;;;;;;25.19;35.14;101584.59;4133161;28;20248;-59
2023/05/14 01:27:37;;;;;;;;;;;;;;;25.19;35.01;101590.81;4133290;28;19921;-59
2023/05/14 01:29:41;;;;;;;;;;;;;;;25.20;35.02;101589.81;4132247;28;19925;-60
2023/05/14 01:31:44;;;;;;;;;;;;;;;25.21;35.11;101587.97;4132905;28;19953;-59
2023/05/14 01:33:47;;;;;;;;;;;;;;;25.22;35.28;101587.00;4133107;28;19930;-59
2023/05/14 01:35:49;;;;;;;;;;;;;;;25.22;35.26;101584.31;4133077;28;19932;-59
2023/05/14 01:37:53;;;;;;;;;;;;;;;25.22;35.19;101570.00;4133089;28;20386;-59
2023/05/14 01:39:55;;;;;;;;;;;;;;;25.20;35.07;101570.09;4132042;28;19972;-60
2023/05/14 01:41:57;;;;;;;;;;;;;;;25.19;35.12;101563.88;4133108;28;20000;-59
2023/05/14 01:43:59;;;;;;;;;;;;;;;25.19;35.02;101571.13;4132879;28;19972;-59
2023/05/14 01:46:01;;;;;;;;;;;;;;;25.20;35.00;101568.28;4132623;28;20283;-59
2023/05/14 01:48:05;;;;;;;;;;;;;;;25.21;35.02;101577.22;4131710;28;19960;-59
2023/05/14 01:50:07;;;;;;;;;;;;;;;25.22;35.01;101572.69;4131593;28;19926;-60
2023/05/14 01:52:08;;;;;;;;;;;;;;;25.22;35.13;101583.47;4132765;28;19926;-59
2023/05/14 01:54:10;;;;;;;;;;;;;;;25.20;35.27;101576.38;4132806;28;19922;-60
2023/05/14 01:56:11;;;;;;;;;;;;;;;25.22;34.87;101580.78;4132688;28;20280;-59
2023/05/14 01:58:12;;;;;;;;;;;;;;;25.21;34.87;101579.91;4132594;28;19922;-60
2023/05/14 02:00:14;;;;;;;;;;;;;;;25.21;34.66;101579.91;4131874;28;19976;-59
2023/05/14 02:02:16;;;;;;;;;;;;;;;25.20;34.77;101580.88;4132912;28;19932;-60
2023/05/14 02:04:19;;;;;;;;;;;;;;;25.20;34.60;101580.88;4132441;28;19984;-59
2023/05/14 02:06:21;;;;;;;;;;;;;;;25.18;34.67;101581.03;4132970;28;19925;-59
2023/05/14 02:08:22;;;;;;;;;;;;;;;25.07;34.81;101559.53;4132026;28;19932;-60
2023/05/14 02:10:24;;;;;;;;;;;;;;;25.18;34.81;101586.41;4131634;28;20343;-59
2023/05/14 02:12:26;;;;;;;;;;;;;;;25.17;34.94;101576.63;4132470;28;20396;-59
2023/05/14 02:14:27;;;;;;;;;;;;;;;25.18;34.49;101590.94;4132320;28;19944;-60
2023/05/14 02:16:29;;;;;;;;;;;;;;;25.18;34.65;101580.19;4132295;28;20359;-59
2023/05/14 02:18:30;;;;;;;;;;;;;;;25.19;34.67;101568.44;4131185;28;19925;-60
2023/05/14 02:20:32;;;;;;;;;;;;;;;25.19;34.63;101576.50;4132117;28;19948;-60
2023/05/14 02:22:33;;;;;;;;;;;;;;;25.17;34.64;101565.84;4132174;28;19976;-60
2023/05/14 02:24:35;;;;;;;;;;;;;;;25.18;34.79;101572.94;4132175;28;20015;-59
2023/05/14 02:26:36;;;;;;;;;;;;;;;25.17;34.68;101567.69;4132232;28;19925;-59
2023/05/14 02:28:38;;;;;;;;;;;;;;;25.17;34.70;101565.00;4131114;28;20162;-59
2023/05/14 02:30:39;;;;;;;;;;;;;;;25.17;34.70;101565.00;4132212;28;19977;-59
2023/05/14 02:32:41;;;;;;;;;;;;;;;25.16;34.94;101566.81;4131935;28;19968;-59
2023/05/14 02:34:43;;;;;;;;;;;;;;;25.17;34.55;101567.69;4131986;28;19968;-59
2023/05/14 02:36:44;;;;;;;;;;;;;;;25.17;34.60;101567.69;4132419;28;20323;-59
2023/05/14 02:38:45;;;;;;;;;;;;;;;25.17;34.60;101565.00;4130969;28;20052;-60
2023/05/14 02:40:47;;;;;;;;;;;;;;;25.18;34.78;101564.88;4131773;28;20013;-60
2023/05/14 02:42:49;;;;;;;;;;;;;;;25.17;34.76;101559.63;4131721;28;20307;-59
2023/05/14 02:44:51;;;;;;;;;;;;;;;25.18;34.58;101567.56;4131860;28;19922;-59
2023/05/14 02:46:52;;;;;;;;;;;;;;;25.18;34.64;101562.16;4132107;28;19988;-60
2023/05/14 02:48:54;;;;;;;;;;;;;;;25.19;34.48;101554.97;4131225;28;19968;-59
2023/05/14 02:50:55;;;;;;;;;;;;;;;25.17;34.52;101556.94;4131861;28;19926;-60
2023/05/14 02:52:57;;;;;;;;;;;;;;;25.18;34.55;101558.63;4132014;28;19926;-59
2023/05/14 02:54:58;;;;;;;;;;;;;;;25.17;34.50;101557.78;4131618;28;19975;-59
2023/05/14 02:57:00;;;;;;;;;;;;;;;25.16;34.59;101564.13;4131454;28;19926;-61
2023/05/14 02:59:01;;;;;;;;;;;;;;;25.18;34.63;101558.63;4131013;28;19969;-59
2023/05/14 03:01:03;;;;;;;;;;;;;;;25.18;34.46;101555.94;4131726;28;19921;-59
2023/05/14 03:03:05;;;;;;;;;;;;;;;25.18;34.54;101559.47;4131854;28;19922;-58
2023/05/14 03:05:07;;;;;;;;;;;;;;;25.19;34.42;101560.34;4131638;28;19922;-59
2023/05/14 03:07:09;;;;;;;;;;;;;;;25.19;34.77;101557.66;4131870;28;19926;-58
2023/05/14 03:09:10;;;;;;;;;;;;;;;25.20;34.78;101562.03;4130597;28;19933;-61
2023/05/14 03:11:12;;;;;;;;;;;;;;;25.20;34.70;101560.22;4131703;28;19922;-61
2023/05/14 03:13:18;;;;;;;;;;;;;;;25.22;34.56;101564.63;4131233;28;19965;-60
2023/05/14 03:15:20;;;;;;;;;;;;;;;25.22;34.46;101554.69;4131480;28;19929;-61
2023/05/14 03:17:21;;;;;;;;;;;;;;;25.22;34.75;101559.25;4131578;28;19943;-61
2023/05/14 03:19:23;;;;;;;;;;;;;;;25.21;34.26;101558.38;4130508;28;19921;-61
2023/05/14 03:21:25;;;;;;;;;;;;;;;25.20;34.59;101562.03;4131366;28;19928;-61
2023/05/14 03:23:26;;;;;;;;;;;;;;;25.20;34.52;101568.28;4131381;28;20375;-61
2023/05/14 03:25:28;;;;;;;;;;;;;;;25.19;34.63;101563.88;4131296;28;19921;-61
2023/05/14 03:27:29;;;;;;;;;;;;;;;25.20;34.75;101560.22;4131122;28;19922;-58
2023/05/14 03:29:31;;;;;;;;;;;;;;;25.21;34.52;101558.38;4129826;28;19926;-60
2023/05/14 03:31:33;;;;;;;;;;;;;;;25.21;34.42;101561.06;4131440;28;19928;-61
2023/05/14 03:33:34;;;;;;;;;;;;;;;25.21;34.71;101561.06;4131154;28;19922;-60
2023/05/14 03:35:36;;;;;;;;;;;;;;;25.22;34.88;101559.25;4131320;28;20037;-60
2023/05/14 03:37:37;;;;;;;;;;;;;;;25.22;34.47;101559.25;4131417;28;20397;-60
2023/05/14 03:39:38;;;;;;;;;;;;;;;25.22;34.32;101562.78;4130129;28;19933;-60
2023/05/14 03:41:40;;;;;;;;;;;;;;;25.22;34.40;101557.38;4131036;28;20387;-60
2023/05/14 03:43:41;;;;;;;;;;;;;;;25.22;34.47;101562.78;4131111;28;20025;-60
2023/05/14 03:45:43;;;;;;;;;;;;;;;25.21;34.35;101555.66;4131186;28;19925;-60
2023/05/14 03:47:44;;;;;;;;;;;;;;;25.21;34.68;101555.66;4131197;28;20429;-61
2023/05/14 03:49:46;;;;;;;;;;;;;;;25.20;34.46;101560.22;4130202;28;20359;-60
2023/05/14 03:51:48;;;;;;;;;;;;;;;25.20;34.62;101559.34;4131249;28;20000;-61
2023/05/14 03:53:49;;;;;;;;;;;;;;;25.22;34.71;101561.94;4131442;28;19945;-60
2023/05/14 03:55:50;;;;;;;;;;;;;;;25.22;34.29;101560.06;4130845;28;20392;-61
2023/05/14 03:57:52;;;;;;;;;;;;;;;25.24;34.61;101559.94;4131282;28;19921;-60
2023/05/14 03:59:53;;;;;;;;;;;;;;;25.22;34.45;101557.38;4112924;28;19922;-60
2023/05/14 04:01:55;;;;;;;;;;;;;;;25.24;34.43;101555.44;4131051;28;19929;-60
2023/05/14 04:03:56;;;;;;;;;;;;;;;25.23;34.27;101560.94;4131161;28;19968;-60
2023/05/14 04:05:58;;;;;;;;;;;;;;;25.22;34.70;101560.06;4130843;28;19921;-61
2023/05/14 04:08:00;;;;;;;;;;;;;;;25.23;34.38;101569.03;4131191;28;19929;-60
2023/05/14 04:10:02;;;;;;;;;;;;;;;25.23;34.42;101569.03;4129889;28;19929;-61
2023/05/14 04:12:05;;;;;;;;;;;;;;;25.22;34.66;101570.00;4130977;28;19928;-60
2023/05/14 04:14:07;;;;;;;;;;;;;;;25.21;34.36;101558.38;4131175;28;19926;-60
2023/05/14 04:16:08;;;;;;;;;;;;;;;25.20;34.42;101570.97;4131175;28;20392;-60
2023/05/14 04:18:10;;;;;;;;;;;;;;;25.20;34.62;101570.97;4130977;28;19922;-61
2023/05/14 04:20:11;;;;;;;;;;;;;;;25.21;34.60;101563.75;4128783;28;19933;-60
2023/05/14 04:22:13;;;;;;;;;;;;;;;25.22;34.48;101564.63;4131030;28;20375;-60
2023/05/14 04:24:15;;;;;;;;;;;;;;;25.22;34.40;101556.53;4130538;28;20059;-60
2023/05/14 04:26:17;;;;;;;;;;;;;;;25.22;34.50;101570.84;4130979;28;19980;-61
2023/05/14 04:28:18;;;;;;;;;;;;;;;25.22;34.59;101565.47;4131018;28;19921;-61
2023/05/14 04:30:20;;;;;;;;;;;;;;;25.22;34.52;101557.38;4129867;28;20005;-61
2023/05/14 04:32:22;;;;;;;;;;;;;;;25.24;34.56;101568.00;4130849;28;19934;-60
2023/05/14 04:34:26;;;;;;;;;;;;;;;25.23;34.33;101563.63;4130951;28;20322;-61
2023/05/14 04:36:28;;;;;;;;;;;;;;;25.24;34.38;101574.28;4130874;28;20446;-61
2023/05/14 04:38:30;;;;;;;;;;;;;;;25.23;34.42;101572.56;4130756;28;20185;-61
2023/05/14 04:40:32;;;;;;;;;;;;;;;25.23;34.54;101566.34;4130364;28;20009;-61
2023/05/14 04:42:33;;;;;;;;;;;;;;;25.23;34.58;101571.72;4116726;28;20280;-60
2023/05/14 04:44:35;;;;;;;;;;;;;;;25.23;34.41;101572.56;4133831;28;19932;-60
2023/05/14 04:46:36;;;;;;;;;;;;;;;25.23;34.47;101577.94;4133772;28;19922;-60
2023/05/14 04:48:38;;;;;;;;;;;;;;;25.24;34.20;101571.56;4133928;28;20379;-60
2023/05/14 04:50:39;;;;;;;;;;;;;;;25.24;34.59;101574.28;4132810;28;20299;-61
2023/05/14 04:52:41;;;;;;;;;;;;;;;25.24;34.52;101568.88;4133884;28;19933;-60
2023/05/14 04:54:42;;;;;;;;;;;;;;;25.25;34.50;101572.41;4133484;28;20330;-60
2023/05/14 04:56:44;;;;;;;;;;;;;;;25.24;34.35;101563.50;4133681;28;19976;-60
2023/05/14 04:58:45;;;;;;;;;;;;;;;25.25;34.38;101567.03;4133493;28;19926;-61
2023/05/14 05:00:47;;;;;;;;;;;;;;;25.23;34.37;101564.47;4132926;28;19922;-60
2023/05/14 05:02:49;;;;;;;;;;;;;;;25.23;34.28;101567.19;4133656;28;20363;-59
2023/05/14 05:04:51;;;;;;;;;;;;;;;25.23;34.52;101567.19;4133399;28;19926;-59
2023/05/14 05:06:52;;;;;;;;;;;;;;;25.21;34.16;101563.75;4133421;28;20354;-60
2023/05/14 05:08:54;;;;;;;;;;;;;;;25.22;34.33;101562.78;4132844;28;19928;-60
2023/05/14 05:10:55;;;;;;;;;;;;;;;25.22;34.20;101562.78;4132944;28;19922;-60
2023/05/14 05:12:56;;;;;;;;;;;;;;;25.22;34.51;101560.06;4133652;28;19922;-59
2023/05/14 05:14:58;;;;;;;;;;;;;;;25.23;34.21;101555.56;4133478;28;20383;-59
2023/05/14 05:16:59;;;;;;;;;;;;;;;25.23;34.27;101556.41;4133425;28;19921;-59
2023/05/14 05:19:01;;;;;;;;;;;;;;;25.24;34.19;101562.63;4132742;28;19926;-59
2023/05/14 05:21:02;;;;;;;;;;;;;;;25.22;34.26;101560.06;4132972;28;19926;-59
2023/05/14 05:23:04;;;;;;;;;;;;;;;25.23;34.23;101559.09;4132756;28;19921;-59
2023/05/14 05:25:06;;;;;;;;;;;;;;;25.22;34.37;101557.38;4132044;28;19921;-60
2023/05/14 05:27:08;;;;;;;;;;;;;;;25.21;34.14;101558.38;4133015;28;20527;-59
2023/05/14 05:29:09;;;;;;;;;;;;;;;25.20;34.12;101552.13;4132417;28;20268;-60
2023/05/14 05:31:11;;;;;;;;;;;;;;;25.20;34.12;101556.66;4133041;28;20012;-59
2023/05/14 05:33:13;;;;;;;;;;;;;;;25.19;34.23;101563.03;4133137;28;19938;-60
2023/05/14 05:35:14;;;;;;;;;;;;;;;25.19;34.23;101560.34;4132969;28;19933;-60
2023/05/14 05:37:15;;;;;;;;;;;;;;;25.20;34.16;101567.41;4132952;28;19988;-59
2023/05/14 05:39:17;;;;;;;;;;;;;;;25.20;34.27;101572.81;4132306;28;20024;-60
2023/05/14 05:41:18;;;;;;;;;;;;;;;25.19;34.20;101574.66;4132798;28;20367;-59
2023/05/14 05:43:20;;;;;;;;;;;;;;;25.20;34.18;101576.38;4132909;28;19928;-59
2023/05/14 05:45:21;;;;;;;;;;;;;;;25.20;34.22;101578.19;4132749;28;19980;-60
2023/05/14 05:47:23;;;;;;;;;;;;;;;25.22;34.33;101588.84;4132791;28;19921;-59
2023/05/14 05:49:24;;;;;;;;;;;;;;;25.20;34.40;101587.13;4131787;28;20007;-60
2023/05/14 05:51:26;;;;;;;;;;;;;;;25.21;34.15;101582.59;4132064;28;19926;-59
2023/05/14 05:53:27;;;;;;;;;;;;;;;25.20;34.21;101587.13;4132718;28;19984;-60
2023/05/14 05:55:29;;;;;;;;;;;;;;;25.20;34.45;101583.56;4132802;28;19976;-59
2023/05/14 05:57:31;;;;;;;;;;;;;;;25.19;34.39;101593.50;4132948;28;19930;-60
2023/05/14 05:59:32;;;;;;;;;;;;;;;25.19;34.18;101593.50;4131671;28;20016;-60
2023/05/14 06:01:34;;;;;;;;;;;;;;;25.20;34.34;101594.34;4132490;28;19929;-59
2023/05/14 06:03:35;;;;;;;;;;;;;;;25.20;34.47;101591.66;4132675;28;19984;-60
2023/05/14 06:05:37;;;;;;;;;;;;;;;25.20;34.34;101591.66;4132188;28;19922;-60
2023/05/14 06:07:38;;;;;;;;;;;;;;;25.21;34.24;101596.06;4132720;28;19967;-60
2023/05/14 06:09:40;;;;;;;;;;;;;;;25.22;34.36;101599.63;4131782;28;19926;-59
2023/05/14 06:11:41;;;;;;;;;;;;;;;25.22;34.25;101603.16;4132353;28;19925;-59
2023/05/14 06:13:43;;;;;;;;;;;;;;;25.21;34.22;101590.66;4132649;28;19941;-59
2023/05/14 06:15:45;;;;;;;;;;;;;;;25.22;34.18;101605.00;4131340;28;19928;-59
2023/05/14 06:17:46;;;;;;;;;;;;;;;25.22;34.17;101607.69;4132814;28;19925;-60
2023/05/14 06:19:48;;;;;;;;;;;;;;;25.09;34.20;101592.53;4131294;28;19949;-60
2023/05/14 06:21:49;;;;;;;;;;;;;;;25.19;34.19;101611.50;4131974;28;20387;-59
2023/05/14 06:23:51;;;;;;;;;;;;;;;25.20;34.36;101615.88;4132269;28;19929;-59
2023/05/14 06:25:52;;;;;;;;;;;;;;;25.21;34.35;101614.91;4131806;28;19922;-60
2023/05/14 06:27:54;;;;;;;;;;;;;;;25.22;34.34;101626.53;4132162;28;19921;-60
2023/05/14 06:29:55;;;;;;;;;;;;;;;25.22;34.20;101616.63;4131292;28;19929;-59
2023/05/14 06:32:00;;;;;;;;;;;;;;;25.21;34.35;101617.59;4132141;28;19922;-60
2023/05/14 06:34:02;;;;;;;;;;;;;;;25.22;34.25;101613.91;4132253;28;19957;-59
2023/05/14 06:36:04;;;;;;;;;;;;;;;25.23;34.15;101612.09;4131662;28;19926;-59
2023/05/14 06:38:06;;;;;;;;;;;;;;;25.22;34.41;101621.16;4131896;28;19932;-60
2023/05/14 06:40:08;;;;;;;;;;;;;;;25.22;34.02;101623.84;4130934;28;19999;-59
2023/05/14 06:42:09;;;;;;;;;;;;;;;25.21;34.08;101628.34;4114758;28;20347;-59
2023/05/14 06:44:11;;;;;;;;;;;;;;;25.22;34.16;101623.84;4132017;28;20037;-59
2023/05/14 06:46:12;;;;;;;;;;;;;;;25.20;34.33;101624.81;4131829;28;19921;-59
2023/05/14 06:48:14;;;;;;;;;;;;;;;25.20;34.46;101618.56;4132009;28;20008;-59
2023/05/14 06:50:15;;;;;;;;;;;;;;;25.20;34.41;101624.81;4130363;28;19926;-59
2023/05/14 06:52:17;;;;;;;;;;;;;;;25.21;33.98;101620.28;4132034;28;19981;-59
2023/05/14 06:54:19;;;;;;;;;;;;;;;25.22;33.98;101621.16;4131750;28;20020;-59
2023/05/14 06:56:21;;;;;;;;;;;;;;;25.23;34.09;101625.56;4132002;28;19922;-59
2023/05/14 06:58:22;;;;;;;;;;;;;;;25.20;34.03;101619.44;4131604;28;19925;-59
2023/05/14 07:00:24;;;;;;;;;;;;;;;25.23;34.27;101617.47;4130656;28;19925;-58
2023/05/14 07:02:26;;;;;;;;;;;;;;;25.22;33.94;101626.53;4131659;28;19976;-59
2023/05/14 07:04:27;;;;;;;;;;;;;;;25.22;34.02;101621.16;4130566;28;19922;-58
2023/05/14 07:06:29;;;;;;;;;;;;;;;25.22;34.30;101622.00;4131705;28;19928;-59
2023/05/14 07:08:31;;;;;;;;;;;;;;;25.21;34.24;101625.66;4131601;28;19925;-60
2023/05/14 07:10:32;;;;;;;;;;;;;;;25.13;34.21;101609.28;4130472;28;19932;-59
2023/05/14 07:12:34;;;;;;;;;;;;;;;25.21;33.93;101628.34;4131794;28;20016;-60
2023/05/14 07:14:35;;;;;;;;;;;;;;;25.21;34.04;101625.66;4131341;28;19922;-60
2023/05/14 07:16:37;;;;;;;;;;;;;;;25.23;34.34;101617.47;4114316;28;20000;-59
2023/05/14 07:18:39;;;;;;;;;;;;;;;25.24;34.33;101625.41;4131233;28;19948;-59
2023/05/14 07:20:40;;;;;;;;;;;;;;;25.24;34.02;101622.72;4130757;28;19933;-60
2023/05/14 07:22:42;;;;;;;;;;;;;;;25.24;34.28;101630.81;4131332;28;19928;-59
2023/05/14 07:24:43;;;;;;;;;;;;;;;25.24;34.09;101633.50;4131541;28;19933;-60
2023/05/14 07:26:45;;;;;;;;;;;;;;;25.24;34.17;101627.25;4113906;28;20017;-60
2023/05/14 07:28:46;;;;;;;;;;;;;;;25.24;34.17;101635.31;4131588;28;19933;-59
2023/05/14 07:30:48;;;;;;;;;;;;;;;25.24;34.05;101633.50;4130411;28;19929;-59
2023/05/14 07:32:49;;;;;;;;;;;;;;;25.24;34.20;101641.56;4130981;28;19949;-59
2023/05/14 07:34:51;;;;;;;;;;;;;;;25.23;34.06;101633.63;4131321;28;19928;-59
2023/05/14 07:36:52;;;;;;;;;;;;;;;25.23;33.98;101626.41;4131387;28;20311;-60
2023/05/14 07:38:54;;;;;;;;;;;;;;;25.23;34.26;101629.09;4113999;28;20000;-59
2023/05/14 07:40:55;;;;;;;;;;;;;;;25.24;34.32;101635.31;4130404;28;19968;-59
2023/05/14 07:42:57;;;;;;;;;;;;;;;25.24;33.87;101644.28;4131350;28;19921;-59
2023/05/14 07:44:58;;;;;;;;;;;;;;;25.25;34.13;101634.34;4131262;28;20008;-59
2023/05/14 07:47:00;;;;;;;;;;;;;;;25.24;34.11;101633.50;4130995;28;20012;-59
2023/05/14 07:49:01;;;;;;;;;;;;;;;25.25;34.08;101635.22;4131193;28;19925;-59
2023/05/14 07:51:03;;;;;;;;;;;;;;;25.25;34.09;101624.44;4130199;28;20363;-58
2023/05/14 07:53:04;;;;;;;;;;;;;;;25.26;34.33;101625.28;4131225;28;19976;-59
2023/05/14 07:55:06;;;;;;;;;;;;;;;25.25;34.17;101629.81;4131297;28;19922;-59
2023/05/14 07:57:07;;;;;;;;;;;;;;;25.25;34.27;101628.97;4131286;28;19921;-59
2023/05/14 07:59:09;;;;;;;;;;;;;;;25.25;34.31;101628.97;4131333;28;19922;-59
2023/05/14 08:01:11;;;;;;;;;;;;;;;25.24;34.27;101629.94;4130441;28;19928;-59
2023/05/14 08:03:13;;;;;;;;;;;;;;;25.24;34.25;101633.50;4130938;28;20296;-60
2023/05/14 08:05:15;;;;;;;;;;;;;;;25.24;34.15;101627.25;4131005;28;20294;-59
2023/05/14 08:07:16;;;;;;;;;;;;;;;25.24;33.87;101630.81;4131146;28;19922;-59
2023/05/14 08:09:18;;;;;;;;;;;;;;;25.25;34.12;101619.06;4131006;28;20299;-59
2023/05/14 08:11:21;;;;;;;;;;;;;;;25.25;33.92;101624.44;4129759;28;19921;-59
2023/05/14 08:13:22;;;;;;;;;;;;;;;25.25;34.12;101624.44;4131271;28;19929;-59
2023/05/14 08:15:24;;;;;;;;;;;;;;;25.26;34.14;101622.59;4133073;28;19922;-60
2023/05/14 08:17:28;;;;;;;;;;;;;;;25.26;34.13;101620.75;4133757;28;20008;-60
2023/05/14 08:19:30;;;;;;;;;;;;;;;25.26;34.22;101626.13;4134064;28;20403;-60
2023/05/14 08:21:31;;;;;;;;;;;;;;;25.25;33.89;101629.81;4133248;28;20059;-60
2023/05/14 08:23:33;;;;;;;;;;;;;;;25.24;34.13;101632.63;4134253;28;20387;-59
2023/05/14 08:25:35;;;;;;;;;;;;;;;25.25;34.05;101639.72;4133833;28;19937;-60
2023/05/14 08:27:36;;;;;;;;;;;;;;;25.25;34.10;101645.13;4134222;28;19944;-59
2023/05/14 08:29:37;;;;;;;;;;;;;;;25.24;34.11;101636.19;4133170;28;19926;-60
2023/05/14 08:31:39;;;;;;;;;;;;;;;25.25;34.14;101642.41;4133502;28;20311;-59
2023/05/14 08:33:41;;;;;;;;;;;;;;;25.24;34.10;101630.81;4133963;28;20015;-60
2023/05/14 08:35:42;;;;;;;;;;;;;;;25.26;34.04;101636.06;4134122;28;19921;-59
2023/05/14 08:37:44;;;;;;;;;;;;;;;25.27;34.16;101637.78;4134063;28;20435;-59
2023/05/14 08:39:45;;;;;;;;;;;;;;;25.27;33.92;101635.91;4133244;28;19964;-60
2023/05/14 08:41:47;;;;;;;;;;;;;;;25.28;34.08;101639.47;4133869;28;19961;-59
2023/05/14 08:43:51;;;;;;;;;;;;;;;25.28;33.97;101631.41;4133761;28;19922;-60
2023/05/14 08:45:56;;;;;;;;;;;;;;;25.27;34.16;101638.59;4133730;28;19976;-60
2023/05/14 08:47:58;;;;;;;;;;;;;;;25.27;34.16;101637.78;4134247;28;19928;-60
2023/05/14 08:50:01;;;;;;;;;;;;;;;25.27;33.80;101648.53;4132827;28;20362;-60
2023/05/14 08:52:03;;;;;;;;;;;;;;;25.27;34.06;101643.16;4133733;28;20380;-59
2023/05/14 08:54:04;;;;;;;;;;;;;;;25.26;34.19;101644.97;4133664;28;19925;-60
2023/05/14 08:56:07;;;;;;;;;;;;;;;25.27;33.98;101645.84;4132180;28;19931;-60
2023/05/14 08:58:08;;;;;;;;;;;;;;;25.27;34.12;101640.47;4133564;28;20406;-60
2023/05/14 09:00:10;;;;;;;;;;;;;;;25.26;33.77;101644.97;4132391;28;19963;-60
2023/05/14 09:02:13;;;;;;;;;;;;;;;25.26;34.09;101647.66;4133358;28;20003;-60
2023/05/14 09:04:18;;;;;;;;;;;;;;;25.28;34.15;101644.88;4133539;28;19976;-60
2023/05/14 09:06:20;;;;;;;;;;;;;;;25.27;34.06;101645.84;4115983;28;20040;-61
2023/05/14 09:08:22;;;;;;;;;;;;;;;25.27;34.09;101643.16;4133603;28;20016;-60
2023/05/14 09:10:23;;;;;;;;;;;;;;;25.27;33.79;101633.22;4132312;28;19922;-60
2023/05/14 09:12:25;;;;;;;;;;;;;;;25.27;33.85;101638.59;4133370;28;19928;-60
2023/05/14 09:14:26;;;;;;;;;;;;;;;25.27;33.94;101640.47;4133007;28;20002;-60
2023/05/14 09:16:28;;;;;;;;;;;;;;;25.27;33.91;101635.06;4133259;28;19922;-61
2023/05/14 09:18:30;;;;;;;;;;;;;;;25.27;33.85;101644.00;4133277;28;20000;-61
2023/05/14 09:20:32;;;;;;;;;;;;;;;25.27;34.00;101637.78;4132278;28;20020;-59
2023/05/14 09:22:33;;;;;;;;;;;;;;;25.26;34.22;101642.28;4133128;28;20324;-60
2023/05/14 09:24:35;;;;;;;;;;;;;;;25.27;34.18;101637.78;4133198;28;19961;-59
2023/05/14 09:26:36;;;;;;;;;;;;;;;25.26;33.82;101642.28;4132350;28;19921;-60
2023/05/14 09:28:42;;;;;;;;;;;;;;;25.27;34.08;101630.53;4132876;28;19976;-60
2023/05/14 09:30:50;;;;;;;;;;;;;;;25.27;34.12;101635.06;4131906;28;19925;-59
2023/05/14 09:32:53;;;;;;;;;;;;;;;25.26;34.27;101631.50;4132875;28;19922;-60
2023/05/14 09:34:55;;;;;;;;;;;;;;;25.26;33.90;101626.13;4119762;28;20025;-60
2023/05/14 09:36:57;;;;;;;;;;;;;;;25.27;34.27;101630.53;4116868;28;19921;-59
2023/05/14 09:38:59;;;;;;;;;;;;;;;25.25;33.89;101634.34;4127598;28;19922;-60
2023/05/14 09:41:01;;;;;;;;;;;;;;;25.24;34.14;101630.81;4114369;28;19962;-59
2023/05/14 09:43:02;;;;;;;;;;;;;;;25.24;33.87;101640.72;4132401;28;19964;-59
2023/05/14 09:45:05;;;;;;;;;;;;;;;25.23;34.14;101639.03;4132870;28;19929;-59
2023/05/14 09:47:07;;;;;;;;;;;;;;;25.23;34.05;101636.34;4132538;28;19929;-59
2023/05/14 09:49:08;;;;;;;;;;;;;;;25.23;34.15;101637.16;4132812;28;20020;-59
2023/05/14 09:51:10;;;;;;;;;;;;;;;25.24;34.13;101636.19;4131645;28;19928;-59
2023/05/14 09:53:12;;;;;;;;;;;;;;;25.24;34.15;101636.19;4132674;28;19946;-59
2023/05/14 09:55:14;;;;;;;;;;;;;;;25.26;34.01;101638.75;4132418;28;20028;-59
2023/05/14 09:57:16;;;;;;;;;;;;;;;25.25;34.12;101635.22;4132548;28;20367;-60
2023/05/14 09:59:17;;;;;;;;;;;;;;;25.26;34.15;101630.66;4132317;28;19925;-60
2023/05/14 10:01:20;;;;;;;;;;;;;;;25.27;33.96;101633.22;4131600;28;19921;-59
2023/05/14 10:03:24;;;;;;;;;;;;;;;25.28;34.12;101634.09;4131357;28;19967;-59
2023/05/14 10:05:26;;;;;;;;;;;;;;;25.28;33.73;101631.41;4132548;28;19929;-59
2023/05/14 10:07:30;;;;;;;;;;;;;;;25.27;34.19;101633.22;4132197;28;20023;-59
2023/05/14 10:09:31;;;;;;;;;;;;;;;25.26;34.09;101634.19;4132271;28;19926;-59
2023/05/14 10:11:35;;;;;;;;;;;;;;;25.27;34.25;101627.00;4131359;28;19926;-60
2023/05/14 10:13:39;;;;;;;;;;;;;;;25.27;33.73;101627.84;4132101;28;19969;-60
2023/05/14 10:15:48;;;;;;;;;;;;;;;25.25;33.81;101629.81;4132348;28;19921;-60
2023/05/14 10:17:54;;;;;;;;;;;;;;;25.26;34.01;101620.75;4132257;28;19926;-60
2023/05/14 10:19:56;;;;;;;;;;;;;;;25.27;33.94;101625.16;4131933;28;20028;-61
2023/05/14 10:22:03;;;;;;;;;;;;;;;25.26;34.01;101628.81;4131910;28;19980;-59
2023/05/14 10:24:06;;;;;;;;;;;;;;;25.29;33.88;101631.28;4131913;28;19949;-60
2023/05/14 10:26:07;;;;;;;;;;;;;;;25.28;33.87;101626.03;4132127;28;19925;-60